^^
Your Local Weather - Clay, NY Station Historical Data
Daily Summary for September 12, 2017 Units:  English    Metric   Both
« Previous Day
Next Day »
Daily Weekly Monthly Yearly Custom
  High: Low: Average:
Temperature: 77.8 °F 46.2 °F 59.7 °F
Dew Point: 60.5 °F 44.6 °F 52.2 °F
Humidity: 95% 42% 79%
Wind Speed: 3.0mph 0.0mph 0.3mph
Wind Gust: 7.0mph - -
Wind- - WNW
Pressure: 30.11 in 29.87 in -
Precipitation: 0.00 in    
Historical Graphs
 
 
Tabular Data for September 12, 2017
Time Temperature Dew Point Pressure Wind Wind Speed Wind Gust Humidity Rainfall Rate (Hourly) solar
00:00 51.3 °F 49.3 °F 30.11 in Calm     93% 0.00 in 0 W/m2
00:06 51.2 °F 49.2 °F 30.11 in Calm     93% 0.00 in 0 W/m2
00:12 51.1 °F 49.1 °F 30.11 in Calm     93% 0.00 in 0 W/m2
00:18 51.1 °F 49.1 °F 30.11 in Calm     93% 0.00 in 0 W/m2
00:24 50.9 °F 48.9 °F 30.11 in Calm     93% 0.00 in 0 W/m2
00:30 50.8 °F 48.8 °F 30.11 in Calm     93% 0.00 in 0 W/m2
00:36 50.7 °F 48.7 °F 30.11 in Calm     93% 0.00 in 0 W/m2
00:42 50.6 °F 48.7 °F 30.11 in Calm     93% 0.00 in 0 W/m2
00:48 50.4 °F 48.5 °F 30.11 in Calm     93% 0.00 in 0 W/m2
00:54 50.2 °F 48.3 °F 30.11 in Calm     93% 0.00 in 0 W/m2
01:00 49.9 °F 48.0 °F 30.11 in Calm     93% 0.00 in 0 W/m2
01:06 49.7 °F 47.8 °F 30.11 in Calm     93% 0.00 in 0 W/m2
01:12 49.6 °F 47.7 °F 30.11 in Calm     93% 0.00 in 0 W/m2
01:18 49.7 °F 47.8 °F 30.10 in Calm     93% 0.00 in 0 W/m2
01:24 49.5 °F 47.8 °F 30.10 in Calm     94% 0.00 in 0 W/m2
01:30 49.3 °F 47.4 °F 30.09 in Calm     93% 0.00 in 0 W/m2
01:36 49.1 °F 47.2 °F 30.09 in Calm     93% 0.00 in 0 W/m2
01:42 49.0 °F 47.3 °F 30.09 in Calm     94% 0.00 in 0 W/m2
01:48 49.0 °F 47.3 °F 30.09 in Calm     94% 0.00 in 0 W/m2
01:54 48.9 °F 47.2 °F 30.09 in Calm     94% 0.00 in 0 W/m2
02:00 49.1 °F 47.4 °F 30.09 in Calm     94% 0.00 in 0 W/m2
02:06 49.0 °F 47.3 °F 30.09 in Calm     94% 0.00 in 0 W/m2
02:12 48.8 °F 47.2 °F 30.09 in Calm     94% 0.00 in 0 W/m2
02:18 48.7 °F 47.1 °F 30.09 in Calm     94% 0.00 in 0 W/m2
02:24 48.6 °F 47.0 °F 30.09 in Calm     94% 0.00 in 0 W/m2
02:30 48.4 °F 46.8 °F 30.09 in Calm     94% 0.00 in 0 W/m2
02:36 48.2 °F 46.6 °F 30.08 in Calm     94% 0.00 in 0 W/m2
02:42 48.4 °F 46.8 °F 30.08 in Calm     94% 0.00 in 0 W/m2
02:48 48.4 °F 46.8 °F 30.08 in Calm     94% 0.00 in 0 W/m2
02:54 48.3 °F 46.7 °F 30.08 in Calm     94% 0.00 in 0 W/m2
03:00 48.0 °F 46.4 °F 30.08 in Calm     94% 0.00 in 0 W/m2
03:06 47.7 °F 46.1 °F 30.08 in Calm     94% 0.00 in 0 W/m2
03:12 47.4 °F 45.8 °F 30.08 in Calm     94% 0.00 in 0 W/m2
03:18 47.2 °F 45.6 °F 30.08 in Calm     94% 0.00 in 0 W/m2
03:24 47.1 °F 45.5 °F 30.08 in Calm     94% 0.00 in 0 W/m2
03:30 47.0 °F 45.4 °F 30.08 in Calm     94% 0.00 in 0 W/m2
03:36 47.1 °F 45.5 °F 30.08 in Calm   2.0 mph 94% 0.00 in 0 W/m2
03:42 47.3 °F 45.7 °F 30.08 in Calm     94% 0.00 in 0 W/m2
03:48 47.2 °F 45.6 °F 30.08 in Calm     94% 0.00 in 0 W/m2
03:54 47.1 °F 45.5 °F 30.07 in Calm     94% 0.00 in 0 W/m2
04:00 46.8 °F 45.2 °F 30.07 in Calm     94% 0.00 in 0 W/m2
04:06 46.7 °F 45.1 °F 30.08 in Calm     94% 0.00 in 0 W/m2
04:12 46.6 °F 45.0 °F 30.08 in Calm     94% 0.00 in 0 W/m2
04:18 46.5 °F 44.9 °F 30.08 in Calm     94% 0.00 in 0 W/m2
04:24 46.3 °F 44.7 °F 30.08 in Calm     94% 0.00 in 0 W/m2
04:30 46.4 °F 44.8 °F 30.08 in Calm     94% 0.00 in 0 W/m2
04:36 46.4 °F 44.8 °F 30.07 in Calm     94% 0.00 in 0 W/m2
04:42 46.3 °F 44.7 °F 30.07 in Calm     94% 0.00 in 0 W/m2
04:48 46.4 °F 44.8 °F 30.06 in Calm   1.0 mph 94% 0.00 in 0 W/m2
04:54 46.3 °F 44.7 °F 30.06 in Calm     94% 0.00 in 0 W/m2
05:00 46.4 °F 44.8 °F 30.06 in Calm     94% 0.00 in 0 W/m2
05:06 46.6 °F 45.0 °F 30.06 in Calm     94% 0.00 in 0 W/m2
05:12 46.8 °F 45.2 °F 30.06 in Calm     94% 0.00 in 0 W/m2
05:18 46.9 °F 45.3 °F 30.06 in Calm     94% 0.00 in 0 W/m2
05:24 46.7 °F 45.1 °F 30.06 in Calm     94% 0.00 in 0 W/m2
05:30 46.4 °F 44.8 °F 30.05 in Calm     94% 0.00 in 0 W/m2
05:36 46.3 °F 44.7 °F 30.05 in Calm     94% 0.00 in 0 W/m2
05:42 46.3 °F 44.7 °F 30.05 in Calm     94% 0.00 in 0 W/m2
05:48 46.4 °F 44.8 °F 30.05 in Calm     94% 0.00 in 0 W/m2
05:54 46.4 °F 44.8 °F 30.05 in Calm     94% 0.00 in 0 W/m2
06:00 46.9 °F 45.3 °F 30.05 in Calm     94% 0.00 in 0 W/m2
06:06 47.0 °F 45.4 °F 30.05 in Calm     94% 0.00 in 0 W/m2
06:12 46.8 °F 45.2 °F 30.06 in Calm     94% 0.00 in 0 W/m2
06:18 46.5 °F 44.9 °F 30.05 in Calm     94% 0.00 in 0 W/m2
06:24 46.3 °F 44.7 °F 30.05 in Calm     94% 0.00 in 0 W/m2
06:30 46.2 °F 44.6 °F 30.05 in Calm     94% 0.00 in 0 W/m2
06:36 46.4 °F 44.8 °F 30.05 in Calm     94% 0.00 in 0 W/m2
06:42 46.3 °F 44.7 °F 30.05 in Calm     94% 0.00 in 0 W/m2
06:48 46.5 °F 44.9 °F 30.06 in Calm     94% 0.00 in 7 W/m2
06:54 46.6 °F 45.0 °F 30.05 in Calm     94% 0.00 in 11 W/m2
07:00 46.6 °F 45.0 °F 30.06 in Calm     94% 0.00 in 14 W/m2
07:06 46.8 °F 45.2 °F 30.06 in Calm     94% 0.00 in 18 W/m2
07:12 46.8 °F 45.2 °F 30.05 in Calm   1.0 mph 94% 0.00 in 23 W/m2
07:18 47.3 °F 45.7 °F 30.05 in Calm   1.0 mph 94% 0.00 in 26 W/m2
07:24 47.5 °F 45.9 °F 30.05 in Calm     94% 0.00 in 30 W/m2
07:30 47.6 °F 46.2 °F 30.05 in Calm     95% 0.00 in 35 W/m2
07:36 47.8 °F 46.4 °F 30.05 in Calm     95% 0.00 in 39 W/m2
07:42 48.1 °F 46.7 °F 30.05 in Calm     95% 0.00 in 44 W/m2
07:48 48.6 °F 47.2 °F 30.05 in Calm     95% 0.00 in 51 W/m2
07:54 48.8 °F 47.4 °F 30.05 in Calm     95% 0.00 in 62 W/m2
08:00 49.1 °F 47.7 °F 30.05 in Calm   1.0 mph 95% 0.00 in 97 W/m2
08:06 49.8 °F 48.4 °F 30.05 in Calm   1.0 mph 95% 0.00 in 65 W/m2
08:12 50.3 °F 48.9 °F 30.05 in Calm     95% 0.00 in 102 W/m2
08:18 50.8 °F 49.4 °F 30.05 in Calm     95% 0.00 in 79 W/m2
08:24 51.3 °F 49.9 °F 30.05 in Calm     95% 0.00 in 174 W/m2
08:30 51.8 °F 50.4 °F 30.04 in Calm     95% 0.00 in 84 W/m2
08:36 52.1 °F 50.7 °F 30.04 in Calm   2.0 mph 95% 0.00 in 100 W/m2
08:42 52.5 °F 51.1 °F 30.04 in North 1.0 mph 2.0 mph 95% 0.00 in 86 W/m2
08:48 52.6 °F 51.2 °F 30.04 in North 1.0 mph 2.0 mph 95% 0.00 in 90 W/m2
08:54 53.1 °F 51.7 °F 30.04 in North 1.0 mph 1.0 mph 95% 0.00 in 88 W/m2
09:00 53.6 °F 52.2 °F 30.04 in North 1.0 mph 2.0 mph 95% 0.00 in 100 W/m2
09:06 54.0 °F 52.6 °F 30.04 in North 1.0 mph 2.0 mph 95% 0.00 in 107 W/m2
09:12 54.4 °F 53.0 °F 30.04 in North 1.0 mph 1.0 mph 95% 0.00 in 132 W/m2
09:18 55.0 °F 53.6 °F 30.04 in Calm   1.0 mph 95% 0.00 in 137 W/m2
09:24 55.3 °F 53.9 °F 30.04 in Calm     95% 0.00 in 116 W/m2
09:30 55.9 °F 54.5 °F 30.03 in Calm   1.0 mph 95% 0.00 in 116 W/m2
09:36 55.9 °F 54.5 °F 30.04 in North 1.0 mph 1.0 mph 95% 0.00 in 120 W/m2
09:42 56.2 °F 54.8 °F 30.04 in North 1.0 mph 1.0 mph 95% 0.00 in 420 W/m2
09:48 56.8 °F 55.4 °F 30.03 in Calm   2.0 mph 95% 0.00 in 431 W/m2
09:54 57.9 °F 56.2 °F 30.03 in Calm     94% 0.00 in 445 W/m2
10:06 59.7 °F 55.8 °F 30.03 in Calm   1.0 mph 87% 0.00 in 480 W/m2
10:12 61.1 °F 57.2 °F 30.03 in Calm     87% 0.00 in 503 W/m2
10:18 61.6 °F 56.0 °F 30.03 in Calm   1.0 mph 82% 0.00 in 517 W/m2
10:24 62.4 °F 57.2 °F 30.03 in Calm     83% 0.00 in 552 W/m2
10:30 62.9 °F 55.9 °F 30.03 in Calm   2.0 mph 78% 0.00 in 571 W/m2
10:36 62.7 °F 55.4 °F 30.03 in North 1.0 mph 2.0 mph 77% 0.00 in 591 W/m2
10:42 64.4 °F 56.3 °F 30.03 in North 1.0 mph 1.0 mph 75% 0.00 in 601 W/m2
10:48 65.2 °F 57.4 °F 30.02 in North 1.0 mph 2.0 mph 76% 0.00 in 619 W/m2
10:54 65.8 °F 57.3 °F 30.02 in Calm   1.0 mph 74% 0.00 in 628 W/m2
11:00 65.8 °F 58.4 °F 30.02 in Calm     77% 0.00 in 650 W/m2
11:06 66.7 °F 58.5 °F 30.02 in North 1.0 mph 3.0 mph 75% 0.00 in 664 W/m2
11:12 67.0 °F 57.3 °F 30.01 in North 1.0 mph 2.0 mph 71% 0.00 in 682 W/m2
11:18 67.0 °F 57.3 °F 30.01 in North 1.0 mph 2.0 mph 71% 0.00 in 708 W/m2
11:24 68.1 °F 57.9 °F 30.01 in North 1.0 mph 2.0 mph 70% 0.00 in 717 W/m2
11:30 67.6 °F 56.7 °F 30.01 in Calm     68% 0.00 in 724 W/m2
11:36 68.5 °F 57.9 °F 30.01 in Calm   3.0 mph 69% 0.00 in 740 W/m2
11:42 69.4 °F 58.0 °F 30.01 in North 1.0 mph 1.0 mph 67% 0.00 in 752 W/m2
11:48 70.5 °F 58.6 °F 30.00 in Calm   1.0 mph 66% 0.00 in 756 W/m2
11:54 70.2 °F 57.9 °F 30.00 in Calm   2.0 mph 65% 0.00 in 759 W/m2
12:00 71.2 °F 59.3 °F 30.00 in North 1.0 mph 2.0 mph 66% 0.00 in 772 W/m2
12:06 70.3 °F 57.5 °F 30.00 in Calm   2.0 mph 64% 0.00 in 772 W/m2
12:12 71.1 °F 57.4 °F 30.00 in North 1.0 mph 2.0 mph 62% 0.00 in 777 W/m2
12:18 71.4 °F 55.9 °F 30.00 in North 1.0 mph 2.0 mph 58% 0.00 in 779 W/m2
12:24 72.0 °F 59.2 °F 30.00 in Calm   1.0 mph 64% 0.00 in 784 W/m2
12:30 72.4 °F 56.8 °F 29.99 in Calm   2.0 mph 58% 0.00 in 788 W/m2
12:36 71.8 °F 58.5 °F 29.99 in Calm   2.0 mph 63% 0.00 in 791 W/m2
12:42 71.5 °F 55.5 °F 29.99 in Calm   2.0 mph 57% 0.00 in 795 W/m2
12:48 72.6 °F 56.0 °F 29.99 in SSW 1.0 mph 4.0 mph 56% 0.00 in 800 W/m2
12:54 73.1 °F 56.0 °F 29.98 in WSW 2.0 mph 7.0 mph 55% 0.00 in 796 W/m2
13:00 72.6 °F 55.5 °F 29.98 in North 2.0 mph 2.0 mph 55% 0.00 in 796 W/m2
13:06 73.3 °F 56.2 °F 29.98 in West 2.0 mph 2.0 mph 55% 0.00 in 800 W/m2
13:12 73.6 °F 55.9 °F 29.97 in Calm   1.0 mph 54% 0.00 in 800 W/m2
13:18 74.1 °F 55.3 °F 29.97 in SSE 1.0 mph 3.0 mph 52% 0.00 in 800 W/m2
13:24 74.5 °F 58.3 °F 29.97 in South 2.0 mph 4.0 mph 57% 0.00 in 766 W/m2
13:30 75.2 °F 57.4 °F 29.97 in WSW 1.0 mph 3.0 mph 54% 0.00 in 807 W/m2
13:36 75.3 °F 54.8 °F 29.97 in WNW 1.0 mph 3.0 mph 49% 0.00 in 796 W/m2
13:42 75.5 °F 55.0 °F 29.97 in West 1.0 mph 1.0 mph 49% 0.00 in 798 W/m2
13:48 74.9 °F 54.4 °F 29.96 in SSE 2.0 mph 6.0 mph 49% 0.00 in 795 W/m2
13:54 75.2 °F 55.8 °F 29.95 in West 3.0 mph 3.0 mph 51% 0.00 in 793 W/m2
14:00 75.0 °F 55.1 °F 29.95 in WSW 1.0 mph 4.0 mph 50% 0.00 in 763 W/m2
14:08 75.8 °F 58.0 °F 29.95 in WNW 1.0 mph 4.0 mph 54% 0.00 in 759 W/m2
14:14 76.3 °F 57.4 °F 29.94 in West 1.0 mph 1.0 mph 52% 0.00 in 759 W/m2
14:20 76.4 °F 56.4 °F 29.94 in North 1.0 mph 1.0 mph 50% 0.00 in 763 W/m2
14:26 76.6 °F 56.6 °F 29.94 in North 1.0 mph 2.0 mph 50% 0.00 in 744 W/m2
14:32 76.5 °F 55.3 °F 29.93 in SSW 1.0 mph 2.0 mph 48% 0.00 in 694 W/m2
14:38 76.0 °F 55.5 °F 29.93 in SSW 1.0 mph 2.0 mph 49% 0.00 in 731 W/m2
14:44 76.8 °F 57.3 °F 29.92 in Calm   2.0 mph 51% 0.00 in 724 W/m2
14:50 76.6 °F 54.3 °F 29.92 in SSW 2.0 mph 2.0 mph 46% 0.00 in 714 W/m2
14:56 76.9 °F 55.7 °F 29.92 in SSW 2.0 mph 2.0 mph 48% 0.00 in 682 W/m2
15:02 77.0 °F 53.4 °F 29.92 in SW 1.0 mph 3.0 mph 44% 0.00 in 684 W/m2
15:08 77.1 °F 52.2 °F 29.92 in WNW 2.0 mph 3.0 mph 42% 0.00 in 673 W/m2
15:14 77.4 °F 55.6 °F 29.92 in SW 1.0 mph 2.0 mph 47% 0.00 in 666 W/m2
15:20 77.8 °F 55.4 °F 29.92 in WSW 1.0 mph 1.0 mph 46% 0.00 in 657 W/m2
15:26 77.8 °F 55.4 °F 29.92 in WSW 1.0 mph 2.0 mph 46% 0.00 in 650 W/m2
15:32 77.2 °F 52.3 °F 29.92 in West 1.0 mph 3.0 mph 42% 0.00 in 613 W/m2
15:38 77.2 °F 54.8 °F 29.92 in WSW 1.0 mph 3.0 mph 46% 0.00 in 608 W/m2
15:44 77.5 °F 56.3 °F 29.91 in WSW 1.0 mph 1.0 mph 48% 0.00 in 550 W/m2
15:50 77.6 °F 54.0 °F 29.91 in WSW 1.0 mph 2.0 mph 44% 0.00 in 554 W/m2
15:56 77.2 °F 53.0 °F 29.91 in WSW 2.0 mph 3.0 mph 43% 0.00 in 533 W/m2
16:02 77.2 °F 54.2 °F 29.91 in SW 2.0 mph 2.0 mph 45% 0.00 in 534 W/m2
16:08 77.5 °F 53.2 °F 29.91 in West 1.0 mph 3.0 mph 43% 0.00 in 512 W/m2
16:14 77.5 °F 55.1 °F 29.91 in West 1.0 mph 3.0 mph 46% 0.00 in 494 W/m2
16:20 77.2 °F 53.6 °F 29.91 in SW 1.0 mph 1.0 mph 44% 0.00 in 485 W/m2
16:26 77.3 °F 53.7 °F 29.90 in North 1.0 mph 3.0 mph 44% 0.00 in 478 W/m2
16:32 77.5 °F 53.9 °F 29.90 in North 1.0 mph 1.0 mph 44% 0.00 in 454 W/m2
16:38 77.6 °F 55.8 °F 29.90 in Calm   1.0 mph 47% 0.00 in 420 W/m2
16:44 77.3 °F 53.7 °F 29.90 in Calm     44% 0.00 in 406 W/m2
16:50 77.6 °F 54.0 °F 29.90 in Calm     44% 0.00 in 404 W/m2
16:56 77.5 °F 55.1 °F 29.90 in Calm   1.0 mph 46% 0.00 in 385 W/m2
17:02 77.4 °F 55.0 °F 29.89 in Calm   1.0 mph 46% 0.00 in 380 W/m2
17:08 77.6 °F 55.2 °F 29.89 in Calm   2.0 mph 46% 0.00 in 332 W/m2
17:14 77.4 °F 55.0 °F 29.89 in Calm     46% 0.00 in 327 W/m2
17:20 76.9 °F 53.3 °F 29.89 in Calm     44% 0.00 in 264 W/m2
17:26 76.6 °F 54.9 °F 29.89 in Calm     47% 0.00 in 237 W/m2
17:32 75.9 °F 54.8 °F 29.89 in Calm     48% 0.00 in 234 W/m2
17:38 75.6 °F 56.2 °F 29.89 in Calm     51% 0.00 in 104 W/m2
17:44 75.7 °F 55.2 °F 29.89 in Calm     49% 0.00 in 83 W/m2
17:50 75.7 °F 54.6 °F 29.89 in Calm     48% 0.00 in 63 W/m2
17:56 75.3 °F 57.0 °F 29.89 in Calm     53% 0.00 in 102 W/m2
18:02 73.8 °F 60.4 °F 29.89 in Calm     63% 0.00 in 54 W/m2
18:08 72.5 °F 60.5 °F 29.89 in Calm     66% 0.00 in 69 W/m2
18:14 71.6 °F 60.5 °F 29.89 in Calm     68% 0.00 in 47 W/m2
18:20 70.8 °F 60.5 °F 29.89 in Calm     70% 0.00 in 40 W/m2
18:26 70.0 °F 60.2 °F 29.89 in Calm     71% 0.00 in 35 W/m2
18:32 69.2 °F 59.8 °F 29.89 in Calm     72% 0.00 in 33 W/m2
18:38 68.5 °F 59.9 °F 29.89 in Calm     74% 0.00 in 30 W/m2
18:44 68.1 °F 59.1 °F 29.89 in Calm     73% 0.00 in 26 W/m2
18:50 67.5 °F 58.9 °F 29.89 in Calm     74% 0.00 in 21 W/m2
18:56 67.0 °F 58.8 °F 29.89 in Calm     75% 0.00 in 18 W/m2
19:02 66.3 °F 58.5 °F 29.89 in Calm     76% 0.00 in 12 W/m2
19:08 65.8 °F 58.4 °F 29.89 in Calm     77% 0.00 in 11 W/m2
19:14 65.1 °F 58.1 °F 29.89 in Calm     78% 0.00 in 5 W/m2
19:20 64.6 °F 57.9 °F 29.89 in Calm     79% 0.00 in 0 W/m2
19:26 64.0 °F 57.7 °F 29.89 in Calm     80% 0.00 in 0 W/m2
19:32 63.5 °F 57.6 °F 29.89 in Calm     81% 0.00 in 0 W/m2
19:38 62.9 °F 57.3 °F 29.89 in Calm     82% 0.00 in 0 W/m2
19:44 62.4 °F 57.2 °F 29.89 in Calm     83% 0.00 in 0 W/m2
19:50 62.0 °F 57.1 °F 29.89 in Calm     84% 0.00 in 0 W/m2
19:56 61.6 °F 56.7 °F 29.89 in Calm     84% 0.00 in 0 W/m2
20:02 61.2 °F 56.7 °F 29.89 in Calm     85% 0.00 in 0 W/m2
20:08 60.7 °F 56.5 °F 29.89 in Calm     86% 0.00 in 0 W/m2
20:14 60.3 °F 56.1 °F 29.89 in Calm     86% 0.00 in 0 W/m2
20:20 59.8 °F 55.9 °F 29.89 in Calm     87% 0.00 in 0 W/m2
20:26 59.5 °F 55.6 °F 29.89 in Calm     87% 0.00 in 0 W/m2
20:32 59.2 °F 55.6 °F 29.89 in Calm     88% 0.00 in 0 W/m2
20:38 58.9 °F 55.4 °F 29.89 in Calm     88% 0.00 in 0 W/m2
20:44 58.7 °F 55.5 °F 29.89 in Calm     89% 0.00 in 0 W/m2
20:50 58.4 °F 55.2 °F 29.89 in Calm     89% 0.00 in 0 W/m2
20:56 58.1 °F 54.9 °F 29.89 in Calm     89% 0.00 in 0 W/m2
21:02 57.7 °F 54.5 °F 29.89 in Calm     89% 0.00 in 0 W/m2
21:08 57.4 °F 54.2 °F 29.89 in Calm     89% 0.00 in 0 W/m2
21:14 57.1 °F 53.9 °F 29.89 in Calm     89% 0.00 in 0 W/m2
21:20 56.9 °F 53.7 °F 29.89 in Calm     89% 0.00 in 0 W/m2
21:26 56.8 °F 53.9 °F 29.89 in Calm     90% 0.00 in 0 W/m2
21:32 56.6 °F 53.7 °F 29.88 in Calm     90% 0.00 in 0 W/m2
21:38 56.5 °F 53.6 °F 29.88 in Calm     90% 0.00 in 0 W/m2
21:44 56.5 °F 53.9 °F 29.88 in Calm     91% 0.00 in 0 W/m2
21:50 56.3 °F 53.4 °F 29.88 in Calm     90% 0.00 in 0 W/m2
21:56 56.2 °F 53.6 °F 29.88 in Calm     91% 0.00 in 0 W/m2
22:02 55.9 °F 53.3 °F 29.88 in Calm     91% 0.00 in 0 W/m2
22:08 55.8 °F 53.2 °F 29.88 in Calm     91% 0.00 in 0 W/m2
22:14 55.6 °F 53.0 °F 29.88 in Calm     91% 0.00 in 0 W/m2
22:20 55.6 °F 53.0 °F 29.88 in Calm     91% 0.00 in 0 W/m2
22:26 55.5 °F 52.9 °F 29.88 in Calm     91% 0.00 in 0 W/m2
22:32 55.3 °F 52.7 °F 29.88 in Calm     91% 0.00 in 0 W/m2
22:38 55.1 °F 52.5 °F 29.87 in Calm     91% 0.00 in 0 W/m2
22:44 54.9 °F 52.3 °F 29.88 in Calm     91% 0.00 in 0 W/m2
22:50 54.5 °F 51.9 °F 29.88 in Calm     91% 0.00 in 0 W/m2
22:56 54.3 °F 51.7 °F 29.88 in Calm     91% 0.00 in 0 W/m2
23:02 54.4 °F 52.1 °F 29.88 in Calm     92% 0.00 in 0 W/m2
23:08 54.5 °F 52.2 °F 29.87 in Calm     92% 0.00 in 0 W/m2
23:16 54.3 °F 52.0 °F 29.87 in Calm     92% 0.00 in 0 W/m2
23:28 53.9 °F 51.6 °F 29.87 in Calm     92% 0.00 in 0 W/m2
23:34 53.6 °F 51.3 °F 29.87 in Calm     92% 0.00 in 0 W/m2
23:38 53.4 °F 51.1 °F 29.87 in Calm     92% 0.00 in 0 W/m2
23:44 53.1 °F 50.8 °F 29.87 in Calm     92% 0.00 in 0 W/m2
23:50 52.9 °F 50.6 °F 29.87 in Calm     92% 0.00 in 0 W/m2
23:56 52.8 °F 50.5 °F 29.87 in Calm     92% 0.00 in 0 W/m2
Country Meadow, Clay, NY, USA
Compliments of Weather Underground - 2 mb